Time;durP1;ratioP1;P1;durP2;ratioP2;P2;SDS_P1;SDS_P2;PMS_P1;PMS_P2;Temp;Humidity;BMP_temperature;BMP_pressure;BME280_temperature;BME280_humidity;BME280_pressure;Samples;Min_cycle;Max_cycle;Signal;HPM_P1;HPM_P2
2021/07/16 08:16:58;;;;;;;5.35;2.05;;;20.50;99.90;;;;;;12048034;27;20444;-58
2021/07/16 08:22:45;;;;;;;3.67;1.73;;;21.00;99.90;;;;;;12029884;28;20053;-59
2021/07/16 08:28:32;;;;;;;4.15;1.77;;;21.50;99.90;;;;;;12038508;28;20062;-59
2021/07/16 08:34:20;;;;;;;3.25;1.90;;;21.70;99.90;;;;;;12026059;28;20045;-60
2021/07/16 08:40:09;;;;;;;3.08;1.85;;;22.10;99.90;;;;;;12015141;28;20057;-58
2021/07/16 08:45:56;;;;;;;3.72;2.00;;;22.30;99.90;;;;;;12008037;28;20049;-60
2021/07/16 08:51:44;;;;;;;3.42;1.98;;;21.90;99.90;;;;;;12026195;28;20048;-59
2021/07/16 08:57:31;;;;;;;4.85;2.80;;;21.60;99.90;;;;;;12033387;27;20052;-59
2021/07/16 09:03:18;;;;;;;5.47;2.20;;;21.30;99.90;;;;;;12014624;28;20107;-59
2021/07/16 09:09:09;;;;;;;2.58;1.65;;;21.40;99.90;;;;;;11980247;28;20071;-59
2021/07/16 09:14:56;;;;;;;5.15;2.03;;;21.30;99.90;;;;;;12049399;28;20058;-59
2021/07/16 09:20:43;;;;;;;4.30;1.88;;;21.40;99.90;;;;;;12072586;27;20044;-59
2021/07/16 09:26:33;;;;;;;5.07;1.92;;;21.70;99.90;;;;;;12055981;28;20040;-60
2021/07/16 09:32:20;;;;;;;4.07;1.98;;;22.00;99.90;;;;;;12053361;28;20436;-59
2021/07/16 09:38:09;;;;;;;24.70;10.32;;;22.30;99.90;;;;;;12061489;28;20040;-59
2021/07/16 09:44:02;;;;;;;16.38;5.85;;;22.40;99.90;;;;;;12060819;28;20044;-56
2021/07/16 09:50:04;;;;;;;12.27;5.25;;;21.80;99.90;;;;;;12058889;28;21733;-58
2021/07/16 09:55:51;;;;;;;11.77;5.70;;;21.40;99.90;;;;;;12058197;28;20044;-59
2021/07/16 10:01:41;;;;;;;14.30;6.60;;;20.90;99.90;;;;;;12057302;28;20043;-59
2021/07/16 10:07:29;;;;;;;13.70;4.40;;;21.10;99.90;;;;;;12059111;28;20051;-59
2021/07/16 10:13:17;;;;;;;15.82;3.92;;;21.30;99.90;;;;;;12061009;28;20052;-59
2021/07/16 10:19:05;;;;;;;10.07;4.25;;;21.30;99.90;;;;;;12057944;28;20049;-58
2021/07/16 10:24:52;;;;;;;9.82;3.38;;;21.00;99.90;;;;;;12055985;28;20048;-59
2021/07/16 10:30:40;;;;;;;9.90;3.78;;;21.20;99.90;;;;;;12059912;28;20053;-59
2021/07/16 10:36:42;;;;;;;8.43;4.47;;;21.20;99.90;;;;;;12052025;28;20114;-59
2021/07/16 10:42:44;;;;;;;12.38;5.38;;;21.60;99.90;;;;;;12004638;28;20053;-60
2021/07/16 10:48:43;;;;;;;10.50;4.05;;;21.50;99.90;;;;;;12049839;28;20164;-58
2021/07/16 10:54:45;;;;;;;10.77;3.97;;;21.70;99.90;;;;;;12039654;28;20572;-59
2021/07/16 11:00:51;;;;;;;13.07;4.30;;;21.50;99.90;;;;;;12037323;28;20049;-58
2021/07/16 11:06:51;;;;;;;6.30;4.15;;;21.60;99.90;;;;;;12011624;28;20032;-60
2021/07/16 11:12:39;;;;;;;10.48;4.47;;;21.40;99.90;;;;;;12029695;28;20192;-62
2021/07/16 11:18:27;;;;;;;11.90;4.70;;;21.50;99.90;;;;;;12040496;28;20055;-61
2021/07/16 11:24:27;;;;;;;13.38;4.95;;;21.20;99.90;;;;;;12040303;28;20056;-61
2021/07/16 11:30:16;;;;;;;11.35;5.38;;;20.90;99.90;;;;;;12038337;28;20280;-61
2021/07/16 11:36:03;;;;;;;13.10;5.63;;;20.70;99.90;;;;;;12086978;28;20051;-61
2021/07/16 11:41:51;;;;;;;18.00;7.28;;;20.80;99.90;;;;;;12093308;28;20859;-61
2021/07/16 11:47:40;;;;;;;13.05;6.55;;;20.50;99.90;;;;;;12091315;28;20051;-61
2021/07/16 11:53:28;;;;;;;20.67;6.43;;;20.50;99.90;;;;;;12097474;28;20703;-60
2021/07/16 11:59:21;;;;;;;15.20;6.25;;;21.00;99.90;;;;;;12085958;28;20036;-60
2021/07/16 12:05:25;;;;;;;13.35;6.63;;;21.40;99.90;;;;;;12084420;27;20051;-62
2021/07/16 12:11:16;;;;;;;17.10;6.00;;;21.50;99.90;;;;;;12096297;28;20131;-62
2021/07/16 12:17:03;;;;;;;9.85;5.90;;;21.80;99.90;;;;;;12085209;28;20048;-62
2021/07/16 12:22:51;;;;;;;13.77;5.88;;;22.00;99.90;;;;;;12080406;28;20735;-62
2021/07/16 12:28:38;;;;;;;12.70;6.22;;;22.20;99.90;;;;;;12084695;28;20040;-63
2021/07/16 12:34:26;;;;;;;11.10;5.90;;;22.60;99.90;;;;;;12088346;28;20071;-63
2021/07/16 12:40:18;;;;;;;13.73;6.65;;;22.60;99.90;;;;;;12093644;28;20484;-63
2021/07/16 12:46:05;;;;;;;16.92;6.05;;;22.60;99.90;;;;;;12090295;28;20047;-63
2021/07/16 12:51:52;;;;;;;12.23;6.55;;;22.60;99.90;;;;;;12083270;28;20052;-62
2021/07/16 12:57:40;;;;;;;15.05;6.25;;;22.30;99.90;;;;;;12090806;28;20056;-63
2021/07/16 13:03:27;;;;;;;15.48;6.53;;;21.80;99.90;;;;;;12075986;28;20052;-62
2021/07/16 13:09:18;;;;;;;23.05;6.82;;;21.80;99.90;;;;;;12094415;28;20061;-62
2021/07/16 13:15:13;;;;;;;15.40;5.45;;;21.60;99.90;;;;;;12099959;27;20158;-62
2021/07/16 13:21:00;;;;;;;13.77;5.95;;;21.60;99.90;;;;;;12088257;28;20040;-63
2021/07/16 13:26:47;;;;;;;13.13;5.93;;;21.50;99.90;;;;;;12098808;28;20048;-63
2021/07/16 13:32:36;;;;;;;15.80;6.97;;;21.80;99.90;;;;;;12100674;27;20044;-63
2021/07/16 13:38:24;;;;;;;14.50;5.90;;;22.00;99.90;;;;;;12093357;28;20048;-63
2021/07/16 13:44:10;;;;;;;16.63;6.63;;;22.30;99.90;;;;;;12096850;28;20079;-63
2021/07/16 13:49:59;;;;;;;12.68;5.60;;;22.50;99.90;;;;;;12098922;28;20071;-60
2021/07/16 13:55:45;;;;;;;16.75;5.90;;;22.80;99.90;;;;;;12089642;28;20052;-61
2021/07/16 14:01:32;;;;;;;12.38;5.40;;;22.70;99.10;;;;;;12110104;28;20044;-61
2021/07/16 14:07:38;;;;;;;15.77;6.40;;;23.10;99.90;;;;;;12096118;28;20056;-60
2021/07/16 14:13:24;;;;;;;15.80;5.70;;;23.50;98.90;;;;;;12096212;28;20440;-61
2021/07/16 14:19:11;;;;;;;14.52;5.85;;;23.70;97.10;;;;;;12098571;28;20547;-61
2021/07/16 14:25:00;;;;;;;12.07;5.80;;;24.00;96.30;;;;;;12088989;28;20381;-60
2021/07/16 14:30:48;;;;;;;11.35;4.85;;;24.10;94.90;;;;;;12095770;28;20632;-61
2021/07/16 14:36:35;;;;;;;14.60;4.50;;;24.20;94.50;;;;;;12094427;28;20106;-61
2021/07/16 14:42:23;;;;;;;16.63;4.90;;;24.40;93.10;;;;;;12091614;28;20040;-60
2021/07/16 14:48:10;;;;;;;15.48;5.40;;;24.30;93.20;;;;;;12088502;28;20048;-61
2021/07/16 14:53:58;;;;;;;18.48;5.55;;;24.50;93.40;;;;;;12097296;28;20098;-61
2021/07/16 14:59:47;;;;;;;16.23;4.95;;;24.30;92.20;;;;;;12087344;28;20051;-61
2021/07/16 15:05:35;;;;;;;15.30;5.03;;;24.30;93.20;;;;;;12096141;28;20060;-61
2021/07/16 15:11:22;;;;;;;20.50;4.97;;;24.10;92.70;;;;;;12096318;28;20899;-60
2021/07/16 15:17:10;;;;;;;12.52;4.70;;;24.20;93.10;;;;;;12078696;28;20056;-61
2021/07/16 15:22:57;;;;;;;16.25;4.95;;;23.90;93.10;;;;;;12094038;28;20531;-61
2021/07/16 15:28:44;;;;;;;26.42;4.57;;;24.50;91.50;;;;;;12095773;28;20043;-61
2021/07/16 15:34:32;;;;;;;7.75;3.97;;;24.90;90.50;;;;;;12099805;28;20043;-61
2021/07/16 15:40:19;;;;;;;14.27;5.10;;;25.10;90.00;;;;;;12100894;28;20044;-61
2021/07/16 15:46:07;;;;;;;11.60;4.40;;;25.30;89.50;;;;;;12102137;28;20044;-61
2021/07/16 15:51:55;;;;;;;19.30;5.95;;;25.60;89.60;;;;;;12100625;28;20040;-60
2021/07/16 15:57:42;;;;;;;17.17;4.43;;;25.80;87.40;;;;;;12101841;28;20169;-61
2021/07/16 16:03:28;;;;;;;11.55;4.38;;;26.50;83.50;;;;;;12100132;28;20056;-61
2021/07/16 16:09:17;;;;;;;12.90;5.32;;;26.50;81.50;;;;;;12100855;28;20082;-61
2021/07/16 16:15:04;;;;;;;17.02;5.05;;;26.10;83.10;;;;;;12098293;28;20032;-62
2021/07/16 16:20:51;;;;;;;20.38;5.03;;;26.70;83.80;;;;;;12100942;28;20048;-62
2021/07/16 16:26:43;;;;;;;14.30;4.90;;;28.40;76.10;;;;;;12100812;28;20040;-62
2021/07/16 16:32:29;;;;;;;10.55;4.30;;;29.90;70.00;;;;;;12099041;28;20048;-62
2021/07/16 16:38:16;;;;;;;14.55;4.18;;;30.70;67.70;;;;;;12110072;28;20066;-62
2021/07/16 16:44:06;;;;;;;11.93;4.28;;;31.90;61.50;;;;;;12108845;28;20051;-63
2021/07/16 16:49:53;;;;;;;10.75;3.58;;;32.60;59.30;;;;;;12111529;28;20055;-62
2021/07/16 16:55:40;;;;;;;11.68;4.05;;;33.50;55.90;;;;;;12110084;28;20526;-62
2021/07/16 17:01:28;;;;;;;17.85;5.05;;;33.90;54.70;;;;;;12106855;28;20059;-62
2021/07/16 17:07:15;;;;;;;12.93;4.40;;;35.00;51.80;;;;;;12107217;28;20044;-62
2021/07/16 17:13:02;;;;;;;10.70;3.67;;;35.00;51.50;;;;;;12108046;28;20044;-62
2021/07/16 17:18:50;;;;;;;11.60;3.45;;;35.70;49.50;;;;;;12107502;28;20055;-63
2021/07/16 17:24:37;;;;;;;12.32;4.45;;;34.50;51.50;;;;;;12108212;28;20044;-62
2021/07/16 17:30:25;;;;;;;24.45;13.30;;;32.30;53.80;;;;;;12106449;28;20067;-62
2021/07/16 17:36:13;;;;;;;34.45;18.15;;;30.50;57.90;;;;;;12107003;28;20534;-62
2021/07/16 17:42:00;;;;;;;22.60;11.70;;;30.10;59.90;;;;;;12103566;28;20051;-62
2021/07/16 17:47:47;;;;;;;9.88;3.42;;;32.80;55.90;;;;;;12105757;28;20048;-62
2021/07/16 17:53:36;;;;;;;20.75;4.18;;;35.60;50.90;;;;;;12104927;28;20104;-62
2021/07/16 17:59:22;;;;;;;10.85;4.03;;;36.80;47.50;;;;;;12106880;28;20051;-62
2021/07/16 18:05:10;;;;;;;11.95;3.38;;;36.30;47.60;;;;;;12105231;28;20051;-63
2021/07/16 18:10:58;;;;;;;12.63;3.58;;;36.30;47.20;;;;;;12102248;28;20415;-63
2021/07/16 18:16:45;;;;;;;11.90;4.30;;;36.30;47.30;;;;;;12100257;28;20051;-63
2021/07/16 18:22:32;;;;;;;12.65;4.13;;;36.20;46.90;;;;;;12103770;28;20535;-62
2021/07/16 18:28:22;;;;;;;11.57;4.20;;;35.90;48.00;;;;;;12102526;28;20070;-62
2021/07/16 18:34:09;;;;;;;13.93;5.97;;;35.50;49.20;;;;;;12102829;28;20119;-63
2021/07/16 18:39:56;;;;;;;15.98;4.70;;;34.90;51.20;;;;;;12102402;28;20066;-63
2021/07/16 18:45:44;;;;;;;11.55;4.38;;;34.50;52.50;;;;;;12104304;28;20052;-62
2021/07/16 18:51:32;;;;;;;14.10;5.25;;;33.60;54.30;;;;;;12102796;28;20043;-62
2021/07/16 18:57:19;;;;;;;11.93;5.00;;;31.20;58.50;;;;;;12101158;28;20051;-61
2021/07/16 19:03:07;;;;;;;14.48;5.15;;;29.30;64.10;;;;;;12101487;28;20048;-62
2021/07/16 19:08:54;;;;;;;14.27;4.90;;;28.30;68.40;;;;;;12100707;28;20087;-62
2021/07/16 19:14:42;;;;;;;13.85;4.97;;;27.40;71.90;;;;;;12101426;28;20051;-62
2021/07/16 19:20:30;;;;;;;15.40;4.75;;;26.70;74.40;;;;;;12101165;28;20059;-61
2021/07/16 19:26:18;;;;;;;12.52;5.50;;;26.10;76.30;;;;;;12100364;28;20664;-61
2021/07/16 19:32:06;;;;;;;18.08;6.57;;;25.70;77.90;;;;;;12099119;28;20630;-62
2021/07/16 19:37:54;;;;;;;13.77;5.25;;;25.30;79.30;;;;;;12101334;28;20055;-61
2021/07/16 19:43:41;;;;;;;20.70;8.77;;;25.10;80.40;;;;;;12099750;28;20036;-61
2021/07/16 19:49:28;;;;;;;16.15;6.18;;;24.80;81.40;;;;;;12098954;28;20052;-62
2021/07/16 19:55:17;;;;;;;15.38;5.82;;;24.30;83.60;;;;;;12099742;28;20443;-61
2021/07/16 20:01:04;;;;;;;14.50;5.60;;;24.00;85.30;;;;;;12101094;28;20048;-62
2021/07/16 20:06:51;;;;;;;15.73;5.85;;;23.90;86.20;;;;;;12098798;28;20055;-62
2021/07/16 20:12:39;;;;;;;14.25;5.88;;;23.80;86.10;;;;;;12097474;28;20036;-62
2021/07/16 20:18:26;;;;;;;13.27;5.65;;;23.60;87.30;;;;;;12100352;28;20063;-61
2021/07/16 20:24:14;;;;;;;16.38;6.93;;;23.50;87.90;;;;;;12099256;28;20048;-61
2021/07/16 20:30:02;;;;;;;22.13;9.68;;;23.40;88.40;;;;;;12099099;28;20126;-61
2021/07/16 20:35:52;;;;;;;19.13;7.10;;;23.30;89.50;;;;;;12102301;28;20040;-61
2021/07/16 20:41:40;;;;;;;20.70;7.00;;;23.10;90.00;;;;;;12098187;28;20458;-61
2021/07/16 20:47:28;;;;;;;19.38;6.22;;;23.00;90.50;;;;;;12102229;28;20052;-61
2021/07/16 20:53:15;;;;;;;20.08;7.28;;;22.90;90.80;;;;;;12103490;28;20040;-61
2021/07/16 20:59:03;;;;;;;17.33;6.82;;;22.90;91.00;;;;;;12098511;28;20438;-61
2021/07/16 21:04:51;;;;;;;18.92;6.32;;;22.70;91.30;;;;;;12099731;28;20044;-61
2021/07/16 21:10:38;;;;;;;29.85;15.10;;;22.70;91.70;;;;;;12098374;28;20044;-61
2021/07/16 21:16:25;;;;;;;15.98;6.45;;;22.60;91.90;;;;;;12099175;28;20063;-61
2021/07/16 21:22:13;;;;;;;23.70;7.28;;;22.60;92.20;;;;;;12102562;28;20051;-61
2021/07/16 21:28:00;;;;;;;20.52;9.38;;;22.60;92.50;;;;;;12108265;28;20048;-61
2021/07/16 21:33:48;;;;;;;17.20;7.30;;;22.40;93.00;;;;;;12105955;28;20044;-61
2021/07/16 21:39:36;;;;;;;15.60;6.82;;;22.30;93.50;;;;;;12107184;28;20038;-60
2021/07/16 21:45:23;;;;;;;12.98;6.05;;;22.30;94.00;;;;;;12106824;28;20463;-61
2021/07/16 21:51:10;;;;;;;20.42;7.18;;;22.30;94.20;;;;;;12106318;28;20052;-60
